Sand Spring Valley, Nevada Weather observations

Data are for 10 minute period ending at time listed.
 Day   Time   Solar   Ave.   Ave.  Ave.  Vector  Max.   Baro.   Total    
  of    of     Rad.   Air    Rel.  Wind   Wind   Wind  Press.  Precip.   
Year   Day            Temp.  Hum.  Speed  Dir.   Gust                    
2017   (PST)  Kw/m2    F      %     mph   deg.    mph    mb.     in.     
-------------------------------------------------------------------------
  53   10:00   0.00   46.3    53    9.8   261    14.1   849.3    0.00 
  53   10:10   0.00   46.0    52   10.1   262    14.8   849.2    0.00 
  53   10:20   0.00   46.5    51   11.3   257    18.1   849.1    0.00 
  53   10:30   0.00   46.9    47   11.8   263    17.2   849.0    0.00 
  53   10:40   0.00   46.2    48    9.3   256    12.9   848.9    0.00 
  53   10:50   0.00   48.7    42   11.8   252    16.7   848.7    0.00 
  53   11:00   0.00   48.5    41   11.9   260    21.3   848.7    0.00 
  53   11:10   0.00   46.7    50   18.2   279    25.0   848.6    0.00 
  53   11:20   0.00   46.4    48   16.2   282    22.6   848.6    0.00 
  53   11:30   0.00   47.6    49   15.9   297    21.5   848.5    0.00 
  53   11:40   0.00   45.9    55   16.2   318    21.0   848.3    0.00 
  53   11:50   0.00   44.7    52   16.0   318    21.3   848.3    0.00 
  53   12:00   0.00   44.5    49   16.8   312    23.2   848.2    0.00 
  53   12:10   0.00   44.8    49   16.8   304    23.1   848.0    0.00 
  53   12:20   0.00   45.0    47   15.9   302    20.8   847.9    0.00 
  53   12:30   0.00   45.3    46   14.6   309    20.2   847.7    0.00 
  53   12:40   0.00   45.0    44   13.9   300    20.0   847.8    0.00 
  53   12:50   0.00   44.9    43   14.5   302    18.7   847.6    0.00 
  53   13:00   0.00   44.7    41   12.7   306    19.1   847.5    0.00 
  53   13:10   0.00   44.9    39   12.6   305    18.3   847.4    0.00 
  53   13:20   0.00   44.6    38   14.8   316    20.8   847.3    0.00 
  53   13:30   0.00   44.7    37   12.9   315    18.1   847.2    0.00 
  53   13:40   0.00   44.6    32   11.8   316    18.6   847.0    0.00 
  53   13:50   0.00   44.9    24   15.0   323    24.5   846.9    0.00 
  53   14:00   0.00   44.6    21   14.2   329    19.4   846.8    0.00 
  53   14:10   0.00   44.9    20   14.0   326    21.6   846.6    0.00 
  53   14:20   0.00   45.0    19   15.8   317    24.5   846.6    0.00 
  53   14:30   0.00   44.6    19   16.1   322    23.0   846.5    0.00 
  53   14:40   0.00   44.1    18   17.1   316    23.7   846.5    0.00 
  53   14:50   0.00   43.3    18   18.9   319    23.8   846.7    0.00 
  53   15:00   0.00   43.1    20   17.0   318    23.4   846.8    0.00 
  53   15:10   0.00   43.0    19   17.7   318    24.0   846.8    0.00 
  53   15:20   0.00   42.5    21   16.4   312    22.9   846.8    0.00 
  53   15:30   0.00   42.2    24   12.0   323    17.8   847.0    0.00 
  53   15:40   0.00   42.0    24   11.5   303    17.3   847.2    0.00 
  53   15:50   0.00   41.9    24    9.4   305    14.5   847.1    0.00 
  53   16:00   0.00   42.0    22    6.9   306    10.3   847.0    0.00 
  53   16:10   0.00   42.0    19    8.8   324    14.9   846.8    0.00 
  53   16:20   0.00   42.2    17   10.7   325    18.9   846.6    0.00 
  53   16:30   0.00   42.2    15   10.7   325    18.0   846.4    0.00 
  53   16:40   0.00   42.2    14   13.7   322    21.0   846.2    0.00 
  53   16:50   0.00   41.9    15   12.3   318    17.2   846.2    0.00 
  53   17:00   0.00   41.8    14   13.4   313    18.6   846.2    0.00 
  53   17:10   0.00   41.6    14   12.9   315    17.8   846.1    0.00 
  53   17:20   0.00   41.6    15   10.2   319    15.3   846.2    0.00 
  53   17:30   0.00   41.2    15   11.7   318    16.2   846.1    0.00 
  53   17:40   0.00   40.8    16    9.8   324    13.4   846.1    0.00 
  53   17:50   0.00   40.2    17    9.4   323    14.2   846.2    0.00 
  53   18:00   0.00   39.9    18    9.4   319    12.9   846.2    0.00 
  53   18:10   0.00   39.5    18    9.7   320    13.4   846.1    0.00 
  53   18:20   0.00   39.8    17   10.6   327    15.0   846.0    0.00 
  53   18:30   0.00   39.7    17   10.7   328    15.1   846.0    0.00 
  53   18:40   0.00   39.2    18   10.8   324    14.3   846.0    0.00 
  53   18:50   0.00   39.1    17    9.9   334    13.4   846.0    0.00 
  53   19:00   0.00   39.2    16   11.6   337    17.9   846.0    0.00 
  53   19:10   0.00   38.5    19   10.9   325    15.1   845.9    0.00 
  53   19:20   0.00   38.3    19   10.9   332    16.6   846.0    0.00 
  53   19:30   0.00   38.6    16   13.5   336    20.0   846.0    0.00 
  53   19:40   0.00   38.2    17   11.1   336    14.9   846.0    0.00 
  53   19:50   0.00   37.7    18    9.3   332    14.8   846.0    0.00 
  53   20:00   0.00   37.7    17   11.3   336    16.7   846.0    0.00 
  53   20:10   0.00   37.5    18   10.0   333    16.0   846.1    0.00 
  53   20:20   0.00   36.4    21    7.7   327    11.3   846.2    0.00 
  53   20:30   0.00   34.5    27    6.1   305     9.5   846.3    0.00 
  53   20:40   0.00   33.4    30    4.9   332     7.8   846.4    0.00 
  53   20:50   0.00   33.4    28    3.3   344     5.3   846.4    0.00 
  53   21:00   0.00   33.2    27    3.4   343     5.5   846.5    0.00 
  53   21:10   0.00   33.5    27    4.2   351     6.8   846.5    0.00 
  53   21:20   0.00   32.1    31    5.6   300     7.7   846.6    0.00 
  53   21:30   0.00   31.3    35    7.4   289     9.9   846.8    0.00 
  53   21:40   0.00   31.3    35    7.6   293    10.4   846.8    0.00 
  53   21:50   0.00   30.1    39    6.7   296     8.3   846.8    0.00 
  53   22:00   0.00   28.9    42    6.3   299     8.0   846.8    0.00 
  53   22:10   0.00   27.7    46    5.3   308     8.5   846.8    0.00 
  53   22:20   0.00   27.9    46    6.5   297     8.9   846.8    0.00 
  53   22:30   0.00   27.8    48    5.7   294     6.8   846.8    0.00 
  53   22:40   0.00   28.4    48    5.5   295     6.6   846.8    0.00 
  53   22:50   0.00   28.9    48    5.4   286     6.6   846.9    0.00 
  53   23:00   0.00   28.4    49    5.5   286     6.8   846.9    0.00 
  53   23:10   0.00   28.3    49    6.0   284     7.3   846.9    0.00 
  53   23:20   0.00   28.5    48    6.1   290     7.4   846.9    0.00 
  53   23:30   0.00   27.9    49    5.6   299     6.6   846.9    0.00 
  53   23:40   0.00   26.9    52    4.7   301     6.3   846.9    0.00 
  53   23:50   0.00   25.4    55    4.0   305     4.5   846.9    0.00 
  54    0:00   0.00   24.9    56    4.1   304     5.6   846.9    0.00 
  54    0:10   0.00   26.1    55    4.5   297     7.5   846.9    0.00 
  54    0:20   0.00   27.1    52    5.3   301     6.8   846.9    0.00 
  54    0:30   0.00   26.3    54    5.1   281     6.4   846.9    0.00 
  54    0:40   0.00   25.9    56    5.6   278     6.9   846.9    0.00 
  54    0:50   0.00   26.7    53    7.8   288    12.1   846.9    0.00 
  54    1:00   0.00   28.6    46   10.2   287    12.3   846.9    0.00 
  54    1:10   0.00   28.1    46   10.1   289    12.9   847.0    0.00 
  54    1:20   0.00   27.8    46   10.5   290    13.1   847.1    0.00 
  54    1:30   0.00   26.8    48    7.8   289     9.9   847.1    0.00 
  54    1:40   0.00   25.7    52    7.7   282     8.9   847.0    0.00 
  54    1:50   0.00   25.6    52    8.2   273     9.6   846.9    0.00 
  54    2:00   0.00   26.4    48    9.6   268    12.2   846.8    0.00 
  54    2:10   0.00   26.8    47   10.2   265    12.9   846.8    0.00 
  54    2:20   0.00   25.8    51   10.2   268    13.8   846.7    0.00 
  54    2:30   0.00   26.0    51   10.4   266    13.8   846.7    0.00 
  54    2:40   0.00   26.0    52   10.8   271    13.4   846.7    0.00 
  54    2:50   0.00   25.4    54   10.7   277    13.3   846.7    0.00 
  54    3:00   0.00   24.8    55    8.9   283    11.1   846.7    0.00 
  54    3:10   0.00   24.5    56    7.6   274    10.9   846.8    0.00 
  54    3:20   0.00   22.9    60    6.3   271     7.3   846.7    0.00 
  54    3:30   0.00   22.1    62    6.1   265     6.8   846.7    0.00 
  54    3:40   0.00   21.7    64    5.7   256     6.8   846.6    0.00 
  54    3:50   0.00   21.5    64    5.4   246     6.4   846.7    0.00 
  54    4:00   0.00   21.3    65    5.6   232     6.8   846.8    0.00 
  54    4:10   0.00   19.9    69    5.5   216     7.2   846.9    0.00 
  54    4:20   0.00   20.9    68    3.1    53     8.6   847.0    0.00 
  54    4:30   0.00   22.5    61    1.7   171     3.9   847.0    0.00 
  54    4:40   0.00   21.3    62    5.0   198     5.8   847.0    0.00 
  54    4:50   0.00   18.4    68    4.9   208     5.3   847.0    0.00 
  54    5:00   0.00   17.7    73    2.0   206     4.2   847.1    0.00 
  54    5:10   0.00   19.5    70    2.8   207     3.3   847.1    0.00 
  54    5:20   0.00   21.1    63    3.3   238     5.3   847.1    0.00 
  54    5:30   0.00   20.9    61    3.8   214     6.1   847.3    0.00 
  54    5:40   0.00   18.9    68    3.6   188     6.2   847.3    0.00 
  54    5:50   0.00   18.5    70    4.6   188     6.1   847.3    0.00 
  54    6:00   0.00   18.6    72    5.3   194     6.0   847.3    0.00 
  54    6:10   0.00   18.3    74    5.1   192     6.4   847.4    0.00 
  54    6:20   0.00   17.6    74    5.0   196     5.8   847.5    0.00 
  54    6:30   0.00   17.3    76    4.5   197     5.7   847.6    0.00 
  54    6:40   0.00   17.4    76    6.0   203     7.4   847.6    0.00 
  54    6:50   0.00   18.6    75    6.0   216     7.5   847.8    0.00 
  54    7:00   0.00   21.5    70    6.5   213     8.1   848.0    0.00 
  54    7:10   0.00   23.6    66    7.0   214     9.2   848.1    0.00 
  54    7:20   0.00   25.4    63    6.8   222     9.3   848.3    0.00 
  54    7:30   0.00   26.8    59    7.0   232     9.9   848.4    0.00 
  54    7:40   0.00   27.9    53    8.1   232    10.7   848.5    0.00 
  54    7:50   0.00   28.7    50    8.2   233    11.1   848.6    0.00 
  54    8:00   0.00   29.6    46    6.7   241     9.1   848.7    0.00 
  54    8:10   0.00   30.6    41    5.3   256     7.4   848.7    0.00 
  54    8:20   0.00   31.6    36    7.9   269    10.7   848.6    0.00 
  54    8:30   0.00   31.6    34    6.9   271     9.4   848.6    0.00 
  54    8:40   0.00   31.9    34    6.3   262    10.3   848.6    0.00 
  54    8:50   0.00   32.2    34    6.9   251    10.5   848.6    0.00 
  54    9:00   0.00   32.5    33    5.2   252    11.5   848.7    0.00 
  54    9:10   0.00   33.0    33    7.8   246    12.2   848.7    0.00 
  54    9:20   0.00   33.0    33    7.2   267    11.4   848.7    0.00 
  54    9:30   0.00   33.8    32    8.4   250    12.9   848.6    0.00 
  54    9:40   0.00   33.8    30    7.7   268    15.3   848.5    0.00 
  54    9:50   0.00   34.7    29   10.3   282    17.2   848.4    0.00 

Return to Sand Spring Valley graphs page.


Western Regional Climate Center,wrcc@dri.edu